createdAt,value
2018-05-17T00:01:26.341Z,99.90
2018-05-17T00:04:00.231Z,99.90
2018-05-17T00:06:30.933Z,99.90
2018-05-17T00:09:08.873Z,99.90
2018-05-17T00:11:38.940Z,99.90
2018-05-17T00:14:08.188Z,99.90
2018-05-17T00:16:38.754Z,99.90
2018-05-17T00:19:08.069Z,99.90
2018-05-17T00:21:38.504Z,99.90
2018-05-17T00:24:14.073Z,99.90
2018-05-17T00:26:44.504Z,99.90
2018-05-17T00:32:03.588Z,99.90
2018-05-17T00:34:32.813Z,99.90
2018-05-17T00:37:08.397Z,99.90
2018-05-17T00:39:40.855Z,99.90
2018-05-17T00:42:11.902Z,99.90
2018-05-17T00:44:41.714Z,99.90
2018-05-17T00:47:11.017Z,99.90
2018-05-17T00:49:40.728Z,99.90
2018-05-17T00:52:09.899Z,99.90
2018-05-17T00:54:38.943Z,99.90
2018-05-17T00:57:08.130Z,99.90
2018-05-17T00:59:37.207Z,99.90
2018-05-17T01:02:06.462Z,99.90
2018-05-17T01:04:35.639Z,99.90
2018-05-17T01:07:05.826Z,99.90
2018-05-17T01:09:34.965Z,99.90
2018-05-17T01:12:14.400Z,99.90
2018-05-17T01:14:44.726Z,99.90
2018-05-17T01:17:14.605Z,99.90
2018-05-17T01:19:44.610Z,99.90
2018-05-17T01:22:28.305Z,99.90
2018-05-17T01:24:58.741Z,99.90
2018-05-17T01:27:29.580Z,99.90
2018-05-17T01:30:25.058Z,99.90
2018-05-17T01:32:54.984Z,99.90
2018-05-17T01:35:25.351Z,99.90
2018-05-17T01:38:09.643Z,99.90
2018-05-17T01:40:43.592Z,99.90
2018-05-17T01:43:17.657Z,99.90
2018-05-17T01:45:56.742Z,99.90
2018-05-17T01:48:32.926Z,99.90
2018-05-17T01:51:30.959Z,99.90
2018-05-17T01:54:10.105Z,99.90
2018-05-17T01:56:39.362Z,99.90
2018-05-17T01:59:09.002Z,99.90
2018-05-17T02:01:38.409Z,99.90
2018-05-17T02:04:08.600Z,99.90
2018-05-17T02:06:39.040Z,99.90
2018-05-17T02:09:08.782Z,99.90
2018-05-17T02:14:18.130Z,99.90
2018-05-17T02:16:53.438Z,99.90
2018-05-17T02:19:27.404Z,99.90
2018-05-17T02:27:18.714Z,99.90
2018-05-17T02:35:10.791Z,99.90
2018-05-17T02:37:47.849Z,99.90
2018-05-17T02:42:57.447Z,99.90
2018-05-17T02:45:31.075Z,99.90
2018-05-17T02:48:07.687Z,99.90
2018-05-17T02:50:37.443Z,99.90
2018-05-17T02:53:14.232Z,99.90
2018-05-17T02:56:10.046Z,99.90
2018-05-17T03:16:25.654Z,99.90
2018-05-17T03:18:56.951Z,99.90
2018-05-17T03:21:28.021Z,99.90
2018-05-17T03:24:13.623Z,99.90
2018-05-17T03:26:46.218Z,99.90
2018-05-17T03:29:16.196Z,99.90
2018-05-17T03:31:47.655Z,99.90
2018-05-17T03:34:19.969Z,99.90
2018-05-17T03:36:49.443Z,99.90
2018-05-17T03:39:24.972Z,99.90
2018-05-17T03:41:59.465Z,99.90
2018-05-17T03:44:31.647Z,99.90
2018-05-17T03:47:01.177Z,99.90
2018-05-17T03:49:43.089Z,99.90
2018-05-17T03:52:12.455Z,99.90
2018-05-17T03:54:46.396Z,99.90
2018-05-17T03:57:16.657Z,99.90
2018-05-17T04:02:30.142Z,99.90
2018-05-17T04:05:10.768Z,99.90
2018-05-17T04:07:39.983Z,99.90
2018-05-17T04:10:09.159Z,99.90
2018-05-17T04:12:38.491Z,99.90
2018-05-17T04:15:07.808Z,99.90
2018-05-17T04:17:37.806Z,99.90
2018-05-17T04:20:08.465Z,99.90
2018-05-17T04:22:39.083Z,99.90
2018-05-17T04:25:13.969Z,99.90
2018-05-17T04:27:43.199Z,99.90
2018-05-17T04:30:12.813Z,99.90
2018-05-17T04:32:42.978Z,99.90
2018-05-17T04:35:14.931Z,99.90
2018-05-17T04:37:47.927Z,99.90
2018-05-17T04:40:17.947Z,99.90
2018-05-17T04:42:47.106Z,99.90
2018-05-17T04:45:19.637Z,99.90
2018-05-17T04:47:49.038Z,99.90
2018-05-17T04:50:18.307Z,99.90
2018-05-17T04:52:48.360Z,99.90
2018-05-17T04:55:19.203Z,99.90
2018-05-17T04:57:48.689Z,99.90
2018-05-17T05:00:18.740Z,99.90
2018-05-17T05:02:47.919Z,99.90
2018-05-17T05:05:18.114Z,99.90
2018-05-17T05:07:48.976Z,99.90
2018-05-17T05:10:18.811Z,99.90
2018-05-17T05:12:49.668Z,99.90
2018-05-17T05:15:19.826Z,99.90
2018-05-17T05:17:49.131Z,99.90
2018-05-17T05:20:18.437Z,99.90
2018-05-17T05:22:47.646Z,99.90
2018-05-17T05:25:19.029Z,99.90
2018-05-17T05:27:48.738Z,99.90
2018-05-17T05:30:18.621Z,99.90
2018-05-17T05:32:49.274Z,99.90
2018-05-17T05:35:18.762Z,99.90
2018-05-17T05:37:48.767Z,99.90
2018-05-17T05:40:18.370Z,99.90
2018-05-17T05:42:48.451Z,99.90
2018-05-17T05:45:25.093Z,99.90
2018-05-17T05:47:54.361Z,99.90
2018-05-17T05:50:24.570Z,99.90
2018-05-17T05:52:54.142Z,99.90
2018-05-17T05:55:24.315Z,99.90
2018-05-17T05:57:53.493Z,99.90
2018-05-17T06:00:22.827Z,99.90
2018-05-17T06:02:53.560Z,99.90
2018-05-17T06:05:22.774Z,99.90
2018-05-17T06:07:51.934Z,99.90
2018-05-17T06:10:21.884Z,99.90
2018-05-17T06:12:50.969Z,99.90
2018-05-17T06:15:20.121Z,99.90
2018-05-17T06:17:49.526Z,99.90
2018-05-17T06:20:19.459Z,99.90
2018-05-17T06:22:50.661Z,99.90
2018-05-17T06:25:19.840Z,99.90
2018-05-17T06:27:49.861Z,99.90
2018-05-17T06:30:19.073Z,99.90
2018-05-17T06:32:48.269Z,99.90
2018-05-17T06:35:17.568Z,99.90
2018-05-17T06:37:51.022Z,99.90
2018-05-17T06:40:20.324Z,99.90
2018-05-17T06:42:50.185Z,99.90
2018-05-17T06:45:19.552Z,99.90
2018-05-17T06:47:48.814Z,99.90
2018-05-17T06:50:18.005Z,99.90
2018-05-17T06:52:48.657Z,99.90
2018-05-17T06:55:18.550Z,99.90
2018-05-17T06:57:49.061Z,99.90
2018-05-17T07:00:18.330Z,99.90
2018-05-17T07:02:47.628Z,99.90
2018-05-17T07:05:19.439Z,99.90
2018-05-17T07:07:49.087Z,99.90
2018-05-17T07:10:18.411Z,99.90
2018-05-17T07:12:47.734Z,99.90
2018-05-17T07:15:18.021Z,99.90
2018-05-17T07:17:47.978Z,99.90
2018-05-17T07:20:17.241Z,99.90
2018-05-17T07:22:47.433Z,99.90
2018-05-17T07:25:16.738Z,99.90
2018-05-17T07:27:46.021Z,99.90
2018-05-17T07:30:16.161Z,99.90
2018-05-17T07:32:50.712Z,99.90
2018-05-17T07:35:19.887Z,99.90
2018-05-17T07:37:49.065Z,99.90
2018-05-17T07:40:18.109Z,99.90
2018-05-17T07:42:47.241Z,99.90
2018-05-17T07:45:16.320Z,99.90
2018-05-17T07:47:45.378Z,99.90
2018-05-17T07:50:14.457Z,99.90
2018-05-17T07:52:43.596Z,99.90
2018-05-17T07:55:12.674Z,99.90
2018-05-17T07:57:42.470Z,99.90
2018-05-17T08:00:11.926Z,99.90
2018-05-17T08:02:41.079Z,99.90
2018-05-17T08:05:10.188Z,99.90
2018-05-17T08:07:39.374Z,99.90
2018-05-17T08:10:08.481Z,99.90
2018-05-17T08:12:38.346Z,99.90
2018-05-17T08:15:07.482Z,99.90
2018-05-17T08:17:36.611Z,99.90
2018-05-17T08:20:05.710Z,99.90
2018-05-17T08:22:34.859Z,99.90
2018-05-17T08:25:03.954Z,99.90
2018-05-17T08:27:33.817Z,99.90
2018-05-17T08:30:03.046Z,99.90
2018-05-17T08:32:32.083Z,99.90
2018-05-17T08:35:01.167Z,99.90
2018-05-17T08:37:30.260Z,99.90
2018-05-17T08:39:59.321Z,99.90
2018-05-17T08:42:28.429Z,99.90
2018-05-17T08:44:58.528Z,99.90
2018-05-17T08:47:27.635Z,99.90
2018-05-17T08:49:57.571Z,99.90
2018-05-17T08:52:27.594Z,99.90
2018-05-17T08:54:56.778Z,99.90
2018-05-17T08:57:26.680Z,99.90
2018-05-17T08:59:56.477Z,99.90
2018-05-17T09:02:26.193Z,99.90
2018-05-17T09:04:55.279Z,99.90
2018-05-17T09:07:24.337Z,99.90
2018-05-17T09:09:53.470Z,99.90
2018-05-17T09:12:22.676Z,99.90
2018-05-17T09:14:51.783Z,99.90
2018-05-17T09:17:21.643Z,99.90
2018-05-17T09:19:50.697Z,99.90
2018-05-17T09:22:19.768Z,99.90
2018-05-17T09:24:48.806Z,99.90
2018-05-17T09:27:17.916Z,99.90
2018-05-17T09:29:47.108Z,99.90
2018-05-17T09:32:16.261Z,99.90
2018-05-17T09:34:46.135Z,99.90
2018-05-17T09:37:15.259Z,99.90
2018-05-17T09:39:44.349Z,99.90
2018-05-17T09:42:13.584Z,99.90
2018-05-17T09:44:42.661Z,99.90
2018-05-17T09:47:11.730Z,99.90
2018-05-17T09:49:40.762Z,99.90
2018-05-17T09:52:09.983Z,99.90
2018-05-17T09:54:39.278Z,99.90
2018-05-17T09:57:08.374Z,99.90
2018-05-17T09:59:37.561Z,99.90
2018-05-17T10:02:06.714Z,99.90
2018-05-17T10:04:36.164Z,99.90
2018-05-17T10:07:05.316Z,99.90
2018-05-17T10:09:34.405Z,99.90
2018-05-17T10:12:03.648Z,99.90
2018-05-17T10:14:32.730Z,99.90
2018-05-17T10:17:01.893Z,99.90
2018-05-17T10:19:30.960Z,99.90
2018-05-17T10:21:59.986Z,99.90
2018-05-17T10:24:29.095Z,99.90
2018-05-17T10:26:58.238Z,99.90
2018-05-17T10:29:27.423Z,99.90
2018-05-17T10:31:56.585Z,99.90
2018-05-17T10:34:25.700Z,99.90
2018-05-17T10:36:54.808Z,99.90
2018-05-17T10:39:24.699Z,99.90
2018-05-17T10:41:55.581Z,99.90
2018-05-17T10:44:24.624Z,99.90
2018-05-17T10:46:53.712Z,99.90
2018-05-17T10:49:22.805Z,99.90
2018-05-17T10:51:51.887Z,99.90
2018-05-17T10:54:20.928Z,99.90
2018-05-17T10:56:50.111Z,99.90
2018-05-17T10:59:19.204Z,99.90
2018-05-17T11:01:48.367Z,99.90
2018-05-17T11:04:17.429Z,99.90
2018-05-17T11:06:48.027Z,99.90
2018-05-17T11:09:17.140Z,99.90
2018-05-17T11:11:46.243Z,99.90
2018-05-17T11:14:15.321Z,99.90
2018-05-17T11:16:44.410Z,99.90
2018-05-17T11:19:13.672Z,99.90
2018-05-17T11:21:42.756Z,99.90
2018-05-17T11:24:11.941Z,99.90
2018-05-17T11:26:41.826Z,99.90
2018-05-17T11:29:10.916Z,99.90
2018-05-17T11:31:41.395Z,99.90
2018-05-17T11:34:10.646Z,99.90
2018-05-17T11:36:40.799Z,99.90
2018-05-17T11:39:09.968Z,99.90
2018-05-17T11:41:39.079Z,99.90
2018-05-17T11:44:08.369Z,99.90
2018-05-17T11:46:37.467Z,99.90
2018-05-17T11:49:06.684Z,99.90
2018-05-17T11:51:35.908Z,99.90
2018-05-17T11:54:05.147Z,99.90
2018-05-17T11:56:34.366Z,99.90
2018-05-17T11:59:04.553Z,99.90
2018-05-17T12:01:33.761Z,99.90
2018-05-17T12:04:03.562Z,99.90
2018-05-17T12:06:33.028Z,99.90
2018-05-17T12:09:03.479Z,99.90
2018-05-17T12:11:32.645Z,99.90
2018-05-17T12:14:01.922Z,99.90
2018-05-17T12:16:31.051Z,99.90
2018-05-17T12:19:00.233Z,99.90
2018-05-17T12:21:29.396Z,99.90
2018-05-17T12:23:59.281Z,99.90
2018-05-17T12:26:28.569Z,99.90
2018-05-17T12:28:57.968Z,99.90
2018-05-17T12:31:27.214Z,99.90
2018-05-17T12:33:56.739Z,99.90
2018-05-17T12:36:26.485Z,99.90
2018-05-17T12:38:55.806Z,99.90
2018-05-17T12:41:25.708Z,99.90
2018-05-17T12:43:54.885Z,99.90
2018-05-17T12:46:24.165Z,99.90
2018-05-17T12:48:54.126Z,99.90
2018-05-17T12:51:23.357Z,99.90
2018-05-17T12:53:53.103Z,99.90
2018-05-17T12:56:25.268Z,99.90
2018-05-17T12:58:55.527Z,99.90
2018-05-17T13:01:25.265Z,99.90
2018-05-17T13:03:54.749Z,99.90
2018-05-17T13:06:24.216Z,99.90
2018-05-17T13:08:56.174Z,99.90
2018-05-17T13:11:25.715Z,99.90
2018-05-17T13:13:55.608Z,99.90
2018-05-17T13:31:51.939Z,99.90
2018-05-17T13:34:27.564Z,99.90
2018-05-17T13:36:58.059Z,99.90
2018-05-17T13:45:36.058Z,99.90
2018-05-17T13:48:05.354Z,99.90
2018-05-17T13:50:36.731Z,99.90
2018-05-17T13:53:06.250Z,99.90
2018-05-17T13:55:35.549Z,99.90
2018-05-17T13:58:04.798Z,99.90
2018-05-17T14:00:33.933Z,99.90
2018-05-17T14:03:04.066Z,99.90
2018-05-17T14:05:33.902Z,99.90
2018-05-17T14:08:03.216Z,99.90
2018-05-17T14:10:32.468Z,99.90
2018-05-17T14:13:02.649Z,99.90
2018-05-17T14:15:32.587Z,99.90
2018-05-17T14:18:02.734Z,99.90
2018-05-17T14:20:33.016Z,99.90
2018-05-17T14:23:03.392Z,99.90
2018-05-17T14:25:33.770Z,99.90
2018-05-17T14:28:02.913Z,99.90
2018-05-17T14:30:32.138Z,99.90
2018-05-17T14:33:01.544Z,99.90
2018-05-17T14:35:35.468Z,99.90
2018-05-17T14:38:04.658Z,99.90
2018-05-17T14:40:41.818Z,99.90
2018-05-17T14:43:13.116Z,99.90
2018-05-17T14:46:14.865Z,99.90
2018-05-17T14:48:45.254Z,99.90
2018-05-17T14:51:17.384Z,99.90
2018-05-17T14:53:47.213Z,99.90
2018-05-17T14:56:17.451Z,99.90
2018-05-17T14:58:47.903Z,99.90
2018-05-17T15:03:51.880Z,95.50
2018-05-17T15:06:21.418Z,93.90
2018-05-17T15:08:50.861Z,92.10
2018-05-17T15:11:20.638Z,91.50
2018-05-17T15:13:51.548Z,89.70
2018-05-17T15:16:20.733Z,87.00
2018-05-17T15:18:50.036Z,82.10
2018-05-17T15:21:19.464Z,80.80
2018-05-17T15:23:48.670Z,82.30
2018-05-17T15:26:22.100Z,80.70
2018-05-17T15:29:03.511Z,84.70
2018-05-17T15:31:35.447Z,90.00
2018-05-17T15:37:00.821Z,91.40
2018-05-17T15:39:30.185Z,92.00
2018-05-17T15:42:01.527Z,89.90
2018-05-17T15:44:30.835Z,86.40
2018-05-17T15:47:12.697Z,85.10
2018-05-17T15:49:46.402Z,84.80
2018-05-17T15:52:21.880Z,76.90
2018-05-17T15:54:52.034Z,74.90
2018-05-17T15:57:22.163Z,71.50
2018-05-17T15:59:54.686Z,70.60
2018-05-17T16:02:30.217Z,68.60
2018-05-17T16:04:59.382Z,68.50
2018-05-17T16:07:39.151Z,69.20
2018-05-17T16:10:09.166Z,69.80
2018-05-17T16:12:43.531Z,71.20
2018-05-17T16:15:13.789Z,71.00
2018-05-17T16:17:44.564Z,71.70
2018-05-17T16:20:13.820Z,75.80
2018-05-17T16:22:57.367Z,76.40
2018-05-17T16:25:27.171Z,71.00
2018-05-17T16:27:59.437Z,63.40
2018-05-17T16:30:30.711Z,61.80
2018-05-17T16:33:02.167Z,59.50
2018-05-17T16:35:31.457Z,58.50
2018-05-17T16:40:49.497Z,59.70
2018-05-17T16:43:20.430Z,58.00
2018-05-17T16:45:53.682Z,57.90
2018-05-17T16:48:58.341Z,58.20
2018-05-17T16:51:33.569Z,57.20
2018-05-17T16:54:30.923Z,52.50
2018-05-17T16:57:01.082Z,52.40
2018-05-17T16:59:41.885Z,52.20
2018-05-17T17:02:11.682Z,50.60
2018-05-17T17:04:41.697Z,54.70
2018-05-17T17:07:11.019Z,54.90
2018-05-17T17:10:15.168Z,51.70
2018-05-17T17:12:45.390Z,48.10
2018-05-17T17:15:16.927Z,47.60
2018-05-17T17:17:46.841Z,49.30
2018-05-17T17:20:16.183Z,49.60
2018-05-17T17:25:29.633Z,49.40
2018-05-17T17:28:00.450Z,48.00
2018-05-17T17:30:30.853Z,46.10
2018-05-17T17:33:04.377Z,45.20
2018-05-17T17:35:34.043Z,45.30
2018-05-17T17:38:17.481Z,45.50
2018-05-17T17:53:56.078Z,46.80
2018-05-17T17:56:27.334Z,50.60
2018-05-17T17:59:12.201Z,50.50
2018-05-17T18:05:52.070Z,54.10
2018-05-17T18:14:16.346Z,51.80
2018-05-17T18:23:58.681Z,51.60
2018-05-17T18:37:00.598Z,54.50
2018-05-17T18:39:35.779Z,53.30
2018-05-17T18:42:08.734Z,51.40
2018-05-17T18:44:40.052Z,51.50
2018-05-17T18:47:11.742Z,53.70
2018-05-17T18:49:47.114Z,56.50
2018-05-17T18:52:21.176Z,58.80
2018-05-17T18:54:56.101Z,64.60
2018-05-17T18:57:25.600Z,64.60
2018-05-17T18:59:57.350Z,62.60
2018-05-17T19:02:27.946Z,61.00
2018-05-17T19:05:00.011Z,57.70
2018-05-17T19:07:33.758Z,55.80
2018-05-17T19:10:03.378Z,55.80
2018-05-17T19:12:32.752Z,56.10
2018-05-17T19:15:03.181Z,55.70
2018-05-17T19:17:32.503Z,56.40
2018-05-17T19:20:01.860Z,56.40
2018-05-17T19:22:38.571Z,55.80
2018-05-17T19:25:11.454Z,53.90
2018-05-17T19:27:45.068Z,53.80
2018-05-17T19:30:14.275Z,55.50
2018-05-17T19:32:43.558Z,55.50
2018-05-17T19:35:21.428Z,55.40
2018-05-17T19:37:51.277Z,55.40
2018-05-17T19:40:21.213Z,55.80
2018-05-17T19:42:51.663Z,55.90
2018-05-17T19:45:21.748Z,55.70
2018-05-17T19:47:55.133Z,55.60
2018-05-17T19:50:27.534Z,56.00
2018-05-17T19:52:57.721Z,56.40
2018-05-17T19:55:27.440Z,56.40
2018-05-17T19:57:57.230Z,57.00
2018-05-17T20:00:26.750Z,55.70
2018-05-17T20:03:14.292Z,55.60
2018-05-17T20:05:49.099Z,55.80
2018-05-17T20:08:19.116Z,55.70
2018-05-17T20:13:29.052Z,55.40
2018-05-17T20:19:30.346Z,60.80
2018-05-17T20:22:08.945Z,62.80
2018-05-17T20:24:41.708Z,62.60
2018-05-17T20:27:12.159Z,61.00
2018-05-17T20:29:42.447Z,60.00
2018-05-17T20:32:12.224Z,60.00
2018-05-17T20:34:48.996Z,59.50
2018-05-17T20:37:19.425Z,61.30
2018-05-17T20:39:49.450Z,58.20
2018-05-17T20:42:20.320Z,60.40
2018-05-17T20:44:50.252Z,60.10
2018-05-17T20:47:20.588Z,62.00
2018-05-17T20:49:54.700Z,65.30
2018-05-17T20:52:24.039Z,66.40
2018-05-17T20:54:53.892Z,66.40
2018-05-17T20:57:27.975Z,65.10
2018-05-17T21:00:29.925Z,65.10
2018-05-17T21:03:01.129Z,66.20
2018-05-17T21:05:33.296Z,65.00
2018-05-17T21:08:03.670Z,64.70
2018-05-17T21:10:36.831Z,63.60
2018-05-17T21:13:06.099Z,64.70
2018-05-17T21:15:40.385Z,63.50
2018-05-17T21:18:10.695Z,62.50
2018-05-17T21:20:41.955Z,64.70
2018-05-17T21:23:14.002Z,66.80
2018-05-17T21:25:47.963Z,65.40
2018-05-17T21:28:19.137Z,67.70
2018-05-17T21:30:50.176Z,67.40
2018-05-17T21:33:51.243Z,68.30
2018-05-17T21:36:51.515Z,67.70
2018-05-17T21:39:50.253Z,69.50
2018-05-17T21:42:24.700Z,69.60
2018-05-17T21:44:54.160Z,69.80
2018-05-17T21:47:31.581Z,67.90
2018-05-17T21:50:08.095Z,66.30
2018-05-17T21:55:42.446Z,71.10
2018-05-17T22:01:25.612Z,76.80
2018-05-17T22:03:59.658Z,75.80
2018-05-17T22:06:34.235Z,76.80
2018-05-17T22:09:04.078Z,76.20
2018-05-17T22:11:33.207Z,77.50
2018-05-17T22:14:03.338Z,78.80
2018-05-17T22:16:35.187Z,78.70
2018-05-17T22:19:06.248Z,79.00
2018-05-17T22:21:36.271Z,80.50
2018-05-17T22:24:06.526Z,83.00
2018-05-17T22:26:38.014Z,84.20
2018-05-17T22:29:07.609Z,87.40
2018-05-17T22:31:36.789Z,88.10
2018-05-17T22:34:06.878Z,90.20
2018-05-17T22:36:37.879Z,90.60
2018-05-17T22:39:13.422Z,90.80
2018-05-17T22:41:42.746Z,91.50
2018-05-17T22:44:47.180Z,91.60
2018-05-17T22:47:41.781Z,91.90
2018-05-17T22:50:12.267Z,92.30
2018-05-17T22:52:41.529Z,92.90
2018-05-17T22:55:11.612Z,93.00
2018-05-17T22:57:52.109Z,93.70
2018-05-17T23:00:21.901Z,93.90
2018-05-17T23:02:51.118Z,94.70
2018-05-17T23:05:23.304Z,94.30
2018-05-17T23:07:55.071Z,94.90
2018-05-17T23:13:09.464Z,94.20
2018-05-17T23:15:42.049Z,95.00
2018-05-17T23:18:13.017Z,94.90
2018-05-17T23:20:43.444Z,95.70
2018-05-17T23:23:12.853Z,95.90
2018-05-17T23:25:44.388Z,96.70
2018-05-17T23:28:14.606Z,97.10
2018-05-17T23:30:46.368Z,97.40
2018-05-17T23:33:16.194Z,98.30
2018-05-17T23:35:47.048Z,99.10
2018-05-17T23:38:16.253Z,99.10
2018-05-17T23:41:06.903Z,99.90
2018-05-17T23:43:36.158Z,99.90
2018-05-17T23:46:07.976Z,99.90
2018-05-17T23:48:37.589Z,99.90
2018-05-17T23:51:06.946Z,99.90
2018-05-17T23:53:36.266Z,99.90
2018-05-17T23:56:06.032Z,99.90
2018-05-17T23:58:36.060Z,99.90
